Time,TemperatureF,DewpointF,PressureIn,WindDirection,WindDirectionDegrees,WindSpeedMPH,WindSpeedGustMPH,Humidity,HourlyPrecipIn,Conditions,Clouds,dailyrainin,SoftwareType,DateUTC
2013-01-31 00:03:00,50.0,47.0,29.29,ENE,64,2.0,0.0,91,-99.99,,,-99.99,,2013-01-31 05:03:00,
2013-01-31 00:11:00,50.0,47.0,29.29,ENE,64,2.0,0.0,91,-99.99,,,-99.99,,2013-01-31 05:11:00,
2013-01-31 00:22:00,50.0,47.0,29.34,NNE,18,3.0,0.0,91,-99.99,,,-99.99,,2013-01-31 05:22:00,
2013-01-31 00:32:00,50.0,47.0,29.34,NNE,18,3.0,0.0,91,-99.99,,,-99.99,,2013-01-31 05:32:00,
2013-01-31 00:42:00,50.0,47.0,29.35,ESE,115,6.0,0.0,88,-99.99,,,-99.99,,2013-01-31 05:42:00,
2013-01-31 00:52:00,50.0,47.0,29.35,ESE,115,6.0,0.0,88,-99.99,,,-99.99,,2013-01-31 05:52:00,
2013-01-31 01:01:00,50.0,47.0,29.35,ESE,115,6.0,0.0,88,-99.99,,,-99.99,,2013-01-31 06:01:00,
2013-01-31 01:11:00,50.0,47.0,29.35,ESE,115,6.0,0.0,88,-99.99,,,-99.99,,2013-01-31 06:11:00,
2013-01-31 09:03:00,36.0,23.0,29.70,East,87,3.0,0.0,60,-99.99,,,-99.99,,2013-01-31 14:03:00,
2013-01-31 09:22:00,35.0,23.0,29.73,NE,35,6.0,20.0,62,-99.99,,,-99.99,,2013-01-31 14:22:00,
2013-01-31 09:32:00,36.0,23.0,29.73,SE,146,2.0,20.0,59,-99.99,,,-99.99,,2013-01-31 14:32:00,
2013-01-31 09:52:00,36.0,22.0,29.74,SE,135,6.0,0.0,56,-99.99,,,-99.99,,2013-01-31 14:52:00,
2013-01-31 10:03:00,36.0,21.0,29.75,NNW,345,5.0,14.0,55,-99.99,,,-99.99,,2013-01-31 15:03:00,
2013-01-31 10:23:00,37.0,21.0,29.75,ESE,102,6.0,15.0,52,-99.99,,,-99.99,,2013-01-31 15:23:00,
2013-01-31 10:32:00,38.0,23.0,29.75,North,359,3.0,13.0,55,-99.99,,,-99.99,,2013-01-31 15:32:00,
2013-01-31 10:42:00,38.0,23.0,29.75,North,359,3.0,13.0,55,-99.99,,,-99.99,,2013-01-31 15:42:00,
2013-01-31 10:52:00,36.0,23.0,29.77,ENE,62,6.0,15.0,58,-99.99,,,-99.99,,2013-01-31 15:52:00,
2013-01-31 11:03:00,36.0,23.0,29.77,ENE,72,8.0,15.0,60,-99.99,,,-99.99,,2013-01-31 16:03:00,
2013-01-31 11:22:00,37.0,21.0,29.79,East,81,3.0,19.0,53,-99.99,,,-99.99,,2013-01-31 16:22:00,
2013-01-31 11:33:00,37.0,21.0,29.79,NNE,22,3.0,17.0,51,-99.99,,,-99.99,,2013-01-31 16:33:00,
2013-01-31 11:52:00,38.0,19.0,29.79,ESE,112,8.0,18.0,46,-99.99,,,-99.99,,2013-01-31 16:52:00,
2013-01-31 12:03:00,38.0,21.0,29.79,SW,236,8.0,14.0,49,-99.99,,,-99.99,,2013-01-31 17:03:00,
2013-01-31 12:23:00,38.0,18.0,29.80,ENE,65,6.0,24.0,44,-99.99,,,-99.99,,2013-01-31 17:23:00,
2013-01-31 12:32:00,39.0,19.0,29.79,NNE,26,5.0,0.0,45,-99.99,,,-99.99,,2013-01-31 17:32:00,
2013-01-31 12:53:00,38.0,18.0,29.78,SE,129,2.0,18.0,43,-99.99,,,-99.99,,2013-01-31 17:53:00,
2013-01-31 13:03:00,38.0,18.0,29.78,NE,36,5.0,19.0,44,-99.99,,,-99.99,,2013-01-31 18:03:00,
2013-01-31 13:12:00,38.0,19.0,29.78,NE,36,9.0,15.0,46,-99.99,,,-99.99,,2013-01-31 18:12:00,
2013-01-31 13:22:00,38.0,19.0,29.78,NE,36,9.0,15.0,46,-99.99,,,-99.99,,2013-01-31 18:22:00,
2013-01-31 13:32:00,38.0,19.0,29.78,NE,46,9.0,16.0,46,-99.99,,,-99.99,,2013-01-31 18:32:00,
2013-01-31 13:52:00,37.0,20.0,29.80,ENE,65,4.0,14.0,49,-99.99,,,-99.99,,2013-01-31 18:52:00,
2013-01-31 14:02:00,36.0,18.0,29.80,SSE,150,6.0,13.0,47,-99.99,,,-99.99,,2013-01-31 19:02:00,
2013-01-31 14:12:00,36.0,18.0,29.80,SSE,150,6.0,13.0,47,-99.99,,,-99.99,,2013-01-31 19:12:00,
2013-01-31 14:22:00,36.0,18.0,29.81,SSE,159,4.0,17.0,48,-99.99,,,-99.99,,2013-01-31 19:22:00,
2013-01-31 14:33:00,37.0,19.0,29.82,ENE,61,4.0,16.0,47,-99.99,,,-99.99,,2013-01-31 19:33:00,
2013-01-31 14:52:00,38.0,19.0,29.82,ENE,77,10.0,17.0,46,-99.99,,,-99.99,,2013-01-31 19:52:00,
2013-01-31 15:02:00,38.0,20.0,29.83,ENE,75,7.0,0.0,47,-99.99,,,-99.99,,2013-01-31 20:02:00,
2013-01-31 15:22:00,36.0,18.0,29.85,ENE,78,6.0,16.0,48,-99.99,,,-99.99,,2013-01-31 20:22:00,
2013-01-31 15:32:00,36.0,18.0,29.84,North,8,3.0,24.0,47,-99.99,,,-99.99,,2013-01-31 20:32:00,
2013-01-31 15:52:00,36.0,19.0,29.85,ESE,120,4.0,19.0,50,-99.99,,,-99.99,,2013-01-31 20:52:00,
2013-01-31 16:02:00,36.0,20.0,29.85,South,176,5.0,13.0,51,-99.99,,,-99.99,,2013-01-31 21:02:00,
2013-01-31 16:12:00,36.0,20.0,29.85,South,176,5.0,13.0,51,-99.99,,,-99.99,,2013-01-31 21:12:00,
2013-01-31 16:22:00,36.0,20.0,29.86,ESE,113,1.0,15.0,52,-99.99,,,-99.99,,2013-01-31 21:22:00,
2013-01-31 16:32:00,35.0,19.0,29.85,East,99,4.0,0.0,51,-99.99,,,-99.99,,2013-01-31 21:32:00,
2013-01-31 16:42:00,35.0,19.0,29.85,East,99,4.0,0.0,51,-99.99,,,-99.99,,2013-01-31 21:42:00,
2013-01-31 16:52:00,36.0,20.0,29.86,SW,217,7.0,14.0,51,-99.99,,,-99.99,,2013-01-31 21:52:00,
2013-01-31 17:03:00,36.0,20.0,29.87,NNE,16,6.0,14.0,52,-99.99,,,-99.99,,2013-01-31 22:03:00,
2013-01-31 17:22:00,35.0,20.0,29.88,NE,53,5.0,13.0,55,-99.99,,,-99.99,,2013-01-31 22:22:00,
2013-01-31 17:33:00,35.0,20.0,29.88,ENE,70,5.0,16.0,55,-99.99,,,-99.99,,2013-01-31 22:33:00,
2013-01-31 17:42:00,35.0,20.0,29.88,ENE,70,5.0,16.0,55,-99.99,,,-99.99,,2013-01-31 22:42:00,
2013-01-31 17:52:00,35.0,19.0,29.88,ENE,65,6.0,13.0,52,-99.99,,,-99.99,,2013-01-31 22:52:00,
2013-01-31 18:03:00,34.0,18.0,29.88,ENE,69,4.0,12.0,52,-99.99,,,-99.99,,2013-01-31 23:03:00,
2013-01-31 18:12:00,34.0,18.0,29.88,ENE,69,4.0,12.0,52,-99.99,,,-99.99,,2013-01-31 23:12:00,
2013-01-31 18:22:00,34.0,18.0,29.89,NE,40,11.0,13.0,52,-99.99,,,-99.99,,2013-01-31 23:22:00,
2013-01-31 18:32:00,34.0,18.0,29.90,ESE,112,4.0,0.0,52,-99.99,,,-99.99,,2013-01-31 23:32:00,
2013-01-31 18:42:00,34.0,18.0,29.90,ESE,112,4.0,0.0,52,-99.99,,,-99.99,,2013-01-31 23:42:00,
2013-01-31 18:52:00,34.0,18.0,29.90,NE,54,11.0,14.0,52,-99.99,,,-99.99,,2013-01-31 23:52:00,
2013-01-31 19:01:00,34.0,18.0,29.90,ESE,115,3.0,0.0,52,-99.99,,,-99.99,,2013-02-01 00:01:00,
2013-01-31 19:11:00,34.0,18.0,29.90,ESE,115,3.0,0.0,52,-99.99,,,-99.99,,2013-02-01 00:11:00,
2013-01-31 19:22:00,34.0,18.0,29.90,SE,141,1.0,0.0,51,-99.99,,,-99.99,,2013-02-01 00:22:00,
2013-01-31 19:32:00,34.0,18.0,29.89,NE,34,3.0,17.0,51,-99.99,,,-99.99,,2013-02-01 00:32:00,
2013-01-31 19:42:00,34.0,18.0,29.89,NE,34,3.0,17.0,51,-99.99,,,-99.99,,2013-02-01 00:42:00,
2013-01-31 19:52:00,34.0,18.0,29.90,SE,130,5.0,0.0,52,-99.99,,,-99.99,,2013-02-01 00:52:00,
2013-01-31 20:01:00,34.0,18.0,29.90,NNE,29,5.0,16.0,52,-99.99,,,-99.99,,2013-02-01 01:01:00,
2013-01-31 20:11:00,34.0,19.0,29.90,NW,308,2.0,19.0,53,-99.99,,,-99.99,,2013-02-01 01:11:00,
2013-01-31 20:21:00,34.0,19.0,29.90,NW,308,2.0,19.0,53,-99.99,,,-99.99,,2013-02-01 01:21:00,
2013-01-31 20:32:00,34.0,19.0,29.90,ESE,110,3.0,0.0,54,-99.99,,,-99.99,,2013-02-01 01:32:00,
2013-01-31 20:52:00,34.0,20.0,29.90,ENE,68,2.0,16.0,55,-99.99,,,-99.99,,2013-02-01 01:52:00,
2013-01-31 21:02:00,34.0,20.0,29.90,ENE,71,3.0,0.0,56,-99.99,,,-99.99,,2013-02-01 02:02:00,
2013-01-31 21:21:00,33.0,20.0,29.90,ENE,61,1.0,0.0,59,-99.99,,,-99.99,,2013-02-01 02:21:00,
2013-01-31 21:32:00,33.0,20.0,29.90,ENE,61,1.0,0.0,59,-99.99,,,-99.99,,2013-02-01 02:32:00,
2013-01-31 21:42:00,33.0,20.0,29.90,ENE,61,1.0,0.0,59,-99.99,,,-99.99,,2013-02-01 02:42:00,
2013-01-31 21:52:00,33.0,20.0,29.91,East,79,3.0,0.0,59,-99.99,,,-99.99,,2013-02-01 02:52:00,
2013-01-31 22:02:00,33.0,20.0,29.91,ENE,61,2.0,0.0,59,-99.99,,,-99.99,,2013-02-01 03:02:00,
2013-01-31 22:12:00,33.0,20.0,29.91,ENE,61,2.0,0.0,59,-99.99,,,-99.99,,2013-02-01 03:12:00,
2013-01-31 22:21:00,33.0,21.0,29.91,NE,56,0.0,0.0,61,-99.99,,,-99.99,,2013-02-01 03:21:00,
2013-01-31 22:33:00,33.0,21.0,29.90,ESE,115,2.0,0.0,61,-99.99,,,-99.99,,2013-02-01 03:33:00,
2013-01-31 22:42:00,33.0,21.0,29.90,ESE,115,2.0,0.0,61,-99.99,,,-99.99,,2013-02-01 03:42:00,
2013-01-31 22:52:00,32.0,20.0,29.91,ENE,72,2.0,0.0,62,-99.99,,,-99.99,,2013-02-01 03:52:00,
2013-01-31 23:02:00,32.0,21.0,29.91,ENE,74,0.0,0.0,64,-99.99,,,-99.99,,2013-02-01 04:02:00,
2013-01-31 23:11:00,32.0,21.0,29.91,ENE,74,0.0,0.0,64,-99.99,,,-99.99,,2013-02-01 04:11:00,
2013-01-31 23:21:00,31.0,21.0,29.90,ENE,73,0.0,0.0,67,-99.99,,,-99.99,,2013-02-01 04:21:00,
2013-01-31 23:32:00,30.0,21.0,29.89,ENE,73,0.0,0.0,69,-99.99,,,-99.99,,2013-02-01 04:32:00,
2013-01-31 23:42:00,30.0,21.0,29.89,ENE,73,0.0,0.0,69,-99.99,,,-99.99,,2013-02-01 04:42:00,
2013-01-31 23:52:00,29.0,21.0,29.89,ENE,73,0.0,0.0,71,-99.99,,,-99.99,,2013-02-01 04:52:00,